Time;durP1;ratioP1;P1;durP2;ratioP2;P2;SDS_P1;SDS_P2;PMS_P1;PMS_P2;Temp;Humidity;BMP_temperature;BMP_pressure;BME280_temperature;BME280_humidity;BME280_pressure;Samples;Min_cycle;Max_cycle;Signal;HPM_P1;HPM_P2
2023/06/06 03:00:51;;;;;;;30.10;28.40;;;12.60;99.90;;;;;;5769608;23;20228;-72
2023/06/06 03:03:17;;;;;;;14.87;13.93;;;12.60;99.90;;;;;;4979972;28;20185;-73
2023/06/06 03:05:43;;;;;;;10.43;9.53;;;12.50;99.90;;;;;;4982896;28;20238;-73
2023/06/06 03:08:09;;;;;;;10.77;10.07;;;12.50;99.90;;;;;;4972948;28;20215;-73
2023/06/06 03:10:34;;;;;;;15.33;14.13;;;12.40;99.90;;;;;;4987377;28;20769;-73
2023/06/06 03:13:00;;;;;;;13.20;12.13;;;12.40;99.90;;;;;;4971224;28;20192;-73
2023/06/06 03:15:26;;;;;;;14.00;13.10;;;12.40;99.90;;;;;;5001020;23;20232;-74
2023/06/06 03:17:51;;;;;;;75.67;71.67;;;12.30;99.90;;;;;;4967968;28;20538;-72
2023/06/06 03:20:18;;;;;;;105.00;99.20;;;12.30;99.90;;;;;;4979609;28;20189;-71
2023/06/06 03:22:44;;;;;;;63.57;60.03;;;12.40;99.90;;;;;;4975068;28;20204;-69
2023/06/06 03:25:10;;;;;;;14.77;13.87;;;12.30;99.90;;;;;;4976143;28;20213;-69
2023/06/06 03:27:35;;;;;;;16.87;15.77;;;12.30;99.90;;;;;;4953702;28;20773;-71
2023/06/06 03:30:06;;;;;;;93.40;88.43;;;12.20;99.90;;;;;;4970773;28;20182;-71
2023/06/06 03:32:32;;;;;;;105.47;99.73;;;12.30;99.90;;;;;;4965444;28;20652;-71
2023/06/06 03:34:57;;;;;;;25.67;24.10;;;12.30;99.90;;;;;;4974492;28;20204;-71
2023/06/06 03:37:23;;;;;;;16.10;15.13;;;12.30;99.90;;;;;;4957092;28;20646;-71
2023/06/06 03:39:49;;;;;;;17.73;16.53;;;12.30;99.90;;;;;;4974648;28;20287;-71
2023/06/06 03:42:15;;;;;;;20.63;19.43;;;12.30;99.90;;;;;;4974427;28;20200;-70
2023/06/06 03:44:42;;;;;;;29.67;28.07;;;12.30;99.90;;;;;;4974416;28;20212;-71
2023/06/06 03:47:08;;;;;;;73.60;69.60;;;12.30;99.90;;;;;;4951701;28;20768;-71
2023/06/06 03:49:36;;;;;;;73.60;69.73;;;12.20;99.90;;;;;;4957813;28;20220;-71
2023/06/06 03:52:03;;;;;;;57.13;54.03;;;12.30;99.90;;;;;;4972757;28;20193;-71
2023/06/06 03:54:29;;;;;;;46.70;44.00;;;12.30;99.90;;;;;;4972436;28;20204;-71
2023/06/06 03:56:56;;;;;;;76.13;71.80;;;12.30;99.90;;;;;;4967423;28;20189;-71
2023/06/06 03:59:21;;;;;;;118.10;111.70;;;12.30;99.90;;;;;;4973911;28;20189;-71
2023/06/06 04:01:47;;;;;;;122.87;116.10;;;12.40;99.90;;;;;;4974445;28;20199;-71
2023/06/06 04:04:15;;;;;;;119.97;113.17;;;12.40;99.90;;;;;;4974049;28;20240;-71
2023/06/06 04:06:41;;;;;;;21.23;19.83;;;12.50;99.90;;;;;;4953985;28;20186;-70
2023/06/06 04:09:08;;;;;;;28.73;27.07;;;12.60;99.90;;;;;;4968986;28;20637;-70
2023/06/06 04:11:35;;;;;;;56.57;53.47;;;12.60;99.90;;;;;;4973790;28;20193;-71
2023/06/06 04:14:01;;;;;;;22.73;21.47;;;12.70;99.90;;;;;;4973646;28;20223;-71
2023/06/06 04:16:26;;;;;;;8.37;7.80;;;12.70;99.90;;;;;;4973612;28;20189;-70
2023/06/06 04:18:52;;;;;;;13.17;12.27;;;12.80;99.90;;;;;;4955927;28;20193;-70
2023/06/06 04:21:19;;;;;;;43.70;40.97;;;12.80;99.90;;;;;;4973736;28;20201;-71
2023/06/06 04:23:46;;;;;;;16.80;15.17;;;12.90;99.90;;;;;;4973287;28;20209;-71
2023/06/06 04:26:22;;;;;;;12.00;11.03;;;12.90;99.90;;;;;;4956299;28;20189;-71
2023/06/06 04:28:48;;;;;;;41.33;39.00;;;13.10;99.90;;;;;;4973130;28;20224;-69
2023/06/06 04:31:15;;;;;;;21.20;19.73;;;13.20;99.90;;;;;;4956655;28;20201;-69
2023/06/06 04:33:42;;;;;;;39.70;37.60;;;13.20;99.90;;;;;;4955942;28;20221;-68
2023/06/06 04:36:08;;;;;;;63.83;60.23;;;13.30;99.90;;;;;;4956440;28;20220;-69
2023/06/06 04:38:37;;;;;;;73.17;69.37;;;13.30;99.90;;;;;;4955588;28;20291;-71
2023/06/06 04:41:02;;;;;;;84.40;79.20;;;13.40;99.90;;;;;;4940857;28;20242;-69
2023/06/06 04:43:28;;;;;;;83.00;77.90;;;13.40;99.90;;;;;;4943186;28;20193;-69
2023/06/06 04:46:00;;;;;;;104.57;98.57;;;13.50;99.90;;;;;;4966267;28;20276;-71
2023/06/06 04:48:28;;;;;;;70.53;66.60;;;13.70;99.90;;;;;;4954870;28;20217;-72
2023/06/06 04:50:55;;;;;;;18.67;17.50;;;13.80;99.90;;;;;;4972841;28;20267;-68
2023/06/06 04:53:21;;;;;;;14.40;13.50;;;13.90;99.90;;;;;;4955383;28;20687;-71
2023/06/06 04:55:47;;;;;;;9.67;8.87;;;14.10;99.90;;;;;;4972435;28;20220;-71
2023/06/06 04:58:14;;;;;;;9.93;9.00;;;14.20;99.90;;;;;;4955250;28;20205;-71
2023/06/06 05:00:45;;;;;;;23.07;21.83;;;14.40;99.90;;;;;;4955137;28;20676;-71
2023/06/06 05:03:11;;;;;;;36.97;34.37;;;14.60;99.90;;;;;;4952134;28;20204;-71
2023/06/06 05:05:36;;;;;;;96.33;91.30;;;14.80;99.90;;;;;;4972338;28;20722;-71
2023/06/06 05:08:02;;;;;;;58.27;55.30;;;15.10;99.90;;;;;;4972172;28;20213;-71
2023/06/06 05:10:28;;;;;;;15.70;14.37;;;15.50;99.90;;;;;;4947433;28;20189;-71
2023/06/06 05:12:54;;;;;;;92.13;87.35;;;16.10;99.90;;;;;;4972883;28;20200;-71
2023/06/06 05:15:19;;;;;;;22.35;20.92;;;16.50;99.90;;;;;;4973056;28;20217;-70
2023/06/06 05:17:57;;;;;;;8.27;7.57;;;17.10;99.90;;;;;;4972063;28;20193;-70
2023/06/06 05:20:23;;;;;;;8.82;8.23;;;17.50;99.90;;;;;;4955114;28;20610;-70
2023/06/06 05:22:52;;;;;;;27.75;26.33;;;17.80;99.90;;;;;;4972455;28;20576;-70
2023/06/06 05:25:18;;;;;;;20.58;19.17;;;18.20;99.90;;;;;;4972507;28;20295;-71
2023/06/06 05:27:44;;;;;;;20.42;19.23;;;18.60;99.90;;;;;;4971839;28;20311;-71
2023/06/06 05:30:10;;;;;;;21.65;20.35;;;19.00;99.90;;;;;;4955117;28;20275;-69
2023/06/06 05:32:36;;;;;;;11.55;10.75;;;19.30;99.90;;;;;;4964670;28;20185;-70
2023/06/06 05:35:03;;;;;;;11.50;10.88;;;19.60;99.90;;;;;;4954969;28;20232;-70
2023/06/06 05:37:29;;;;;;;9.90;8.95;;;19.60;99.90;;;;;;4971809;28;20239;-70
2023/06/06 05:39:55;;;;;;;7.78;7.28;;;20.00;99.90;;;;;;4972226;28;20653;-71
2023/06/06 05:42:23;;;;;;;8.23;7.63;;;20.10;99.90;;;;;;4972235;28;20312;-71
2023/06/06 05:44:50;;;;;;;9.10;8.43;;;20.20;99.90;;;;;;4972535;28;20394;-71
2023/06/06 05:47:16;;;;;;;12.40;11.43;;;20.20;99.90;;;;;;4971848;28;20259;-70
2023/06/06 05:49:42;;;;;;;14.43;13.55;;;20.40;99.90;;;;;;4972007;28;20185;-72
2023/06/06 05:52:08;;;;;;;17.25;16.30;;;20.60;99.90;;;;;;4972565;28;20189;-71
2023/06/06 05:54:34;;;;;;;18.02;16.60;;;20.80;99.90;;;;;;4972845;28;20219;-72
2023/06/06 05:57:00;;;;;;;21.80;20.58;;;21.00;99.90;;;;;;4966123;28;20676;-73
2023/06/06 05:59:26;;;;;;;13.15;12.20;;;21.10;99.90;;;;;;4949582;28;20190;-72
2023/06/06 06:01:52;;;;;;;11.13;10.18;;;21.20;99.90;;;;;;4970228;28;20196;-72
2023/06/06 06:04:19;;;;;;;10.55;9.75;;;21.40;99.90;;;;;;4969044;28;20340;-71
2023/06/06 06:06:46;;;;;;;19.27;18.15;;;21.60;99.90;;;;;;4950192;28;20185;-71
2023/06/06 06:09:14;;;;;;;18.17;17.05;;;21.50;99.90;;;;;;4960678;28;20692;-71
2023/06/06 06:11:40;;;;;;;10.77;10.02;;;22.00;99.90;;;;;;4971845;28;20189;-71
2023/06/06 06:14:06;;;;;;;7.65;7.15;;;22.30;99.90;;;;;;4954374;28;20252;-71
2023/06/06 06:16:32;;;;;;;6.07;5.68;;;22.50;99.90;;;;;;4971969;28;20208;-71
2023/06/06 06:18:58;;;;;;;7.43;7.00;;;22.60;99.90;;;;;;4971602;28;20211;-71
2023/06/06 06:21:25;;;;;;;7.20;6.80;;;22.50;99.90;;;;;;4972008;28;20220;-71
2023/06/06 06:23:51;;;;;;;7.88;7.45;;;22.40;99.90;;;;;;4971918;28;20689;-71
2023/06/06 06:26:17;;;;;;;10.30;9.70;;;22.50;99.90;;;;;;4971917;28;20193;-71
2023/06/06 06:28:43;;;;;;;7.93;7.38;;;22.10;99.90;;;;;;4971251;28;20307;-70
2023/06/06 06:31:08;;;;;;;9.18;8.57;;;21.90;99.90;;;;;;4971759;28;20683;-71
2023/06/06 06:33:34;;;;;;;9.35;8.75;;;22.00;99.90;;;;;;4971465;28;20274;-71
2023/06/06 06:36:01;;;;;;;8.73;8.02;;;22.30;99.90;;;;;;4971716;28;20184;-71
2023/06/06 06:38:26;;;;;;;7.13;6.63;;;22.70;99.90;;;;;;4971255;28;20204;-71
2023/06/06 06:40:53;;;;;;;10.90;10.00;;;23.20;99.90;;;;;;4954456;28;20200;-71
2023/06/06 06:43:19;;;;;;;15.95;14.85;;;23.30;99.90;;;;;;4971558;28;20288;-74
2023/06/06 06:45:45;;;;;;;16.38;15.48;;;23.30;99.90;;;;;;4971627;28;20295;-75
2023/06/06 06:48:11;;;;;;;10.43;9.90;;;23.80;99.90;;;;;;4971228;28;20569;-75
2023/06/06 06:50:36;;;;;;;6.93;6.45;;;23.90;99.90;;;;;;4963592;28;20196;-75
2023/06/06 06:53:02;;;;;;;6.78;6.07;;;23.90;99.90;;;;;;4954530;28;20200;-75
2023/06/06 06:55:28;;;;;;;5.50;5.10;;;24.20;99.90;;;;;;4971615;28;20672;-75
2023/06/06 06:57:56;;;;;;;6.78;6.15;;;24.10;99.90;;;;;;4954255;28;20201;-75
2023/06/06 07:00:23;;;;;;;6.40;5.80;;;23.90;99.90;;;;;;4971818;28;20189;-75
2023/06/06 07:02:51;;;;;;;6.25;5.75;;;23.50;99.90;;;;;;4971523;28;20300;-75
2023/06/06 07:05:17;;;;;;;6.35;5.95;;;23.30;99.90;;;;;;4958283;28;20212;-75
2023/06/06 07:07:46;;;;;;;6.55;5.85;;;23.60;99.90;;;;;;4974760;28;20352;-75
2023/06/06 07:10:13;;;;;;;6.75;5.90;;;23.70;99.90;;;;;;4975139;28;20247;-75
2023/06/06 07:12:39;;;;;;;5.57;5.18;;;23.90;99.90;;;;;;4957961;28;20299;-75
2023/06/06 07:15:05;;;;;;;5.60;5.20;;;24.10;99.40;;;;;;4957621;28;20641;-75
2023/06/06 07:17:31;;;;;;;6.78;6.30;;;24.30;99.10;;;;;;4957420;28;20193;-75
2023/06/06 07:19:57;;;;;;;6.18;5.78;;;23.90;99.80;;;;;;4974933;28;20187;-75
2023/06/06 07:22:23;;;;;;;5.97;5.38;;;23.70;99.90;;;;;;4957699;28;20657;-75
2023/06/06 07:24:48;;;;;;;6.07;5.30;;;23.70;99.90;;;;;;4957591;28;20230;-75
2023/06/06 07:27:15;;;;;;;5.95;5.55;;;23.80;99.90;;;;;;4974549;28;20228;-75
2023/06/06 07:29:41;;;;;;;7.40;6.45;;;23.80;99.90;;;;;;4974858;28;20192;-76
2023/06/06 07:32:07;;;;;;;6.47;5.88;;;23.70;99.90;;;;;;4974831;28;20188;-75
2023/06/06 07:34:34;;;;;;;7.25;5.80;;;23.90;99.90;;;;;;4957423;28;20240;-75
2023/06/06 07:37:00;;;;;;;6.63;6.03;;;24.30;99.60;;;;;;4957266;28;20196;-76
2023/06/06 07:39:26;;;;;;;6.13;5.72;;;24.60;98.80;;;;;;4974709;28;20740;-76
2023/06/06 07:41:52;;;;;;;5.88;5.22;;;24.70;98.50;;;;;;4974797;28;20306;-76
2023/06/06 07:44:18;;;;;;;5.57;5.28;;;24.70;98.60;;;;;;4974654;28;20661;-75
2023/06/06 07:46:44;;;;;;;6.57;6.18;;;24.50;98.50;;;;;;4974560;28;20251;-76
2023/06/06 07:49:10;;;;;;;5.90;5.47;;;24.40;98.80;;;;;;4974151;28;20689;-75
2023/06/06 07:51:36;;;;;;;7.28;5.82;;;24.60;98.40;;;;;;4974373;28;20244;-75
2023/06/06 07:54:02;;;;;;;6.88;6.28;;;25.20;97.80;;;;;;4974302;28;20200;-75
2023/06/06 07:56:30;;;;;;;7.72;7.13;;;25.40;96.70;;;;;;4974759;28;20189;-75
2023/06/06 07:58:57;;;;;;;6.90;6.30;;;24.70;96.40;;;;;;4956538;28;20243;-75
2023/06/06 08:01:24;;;;;;;7.13;6.70;;;24.70;97.40;;;;;;4974355;28;20196;-75
2023/06/06 08:03:51;;;;;;;5.72;5.30;;;24.90;97.10;;;;;;4957119;28;20312;-75
2023/06/06 08:06:17;;;;;;;5.72;5.32;;;24.60;97.00;;;;;;4974831;28;20208;-75
2023/06/06 08:08:45;;;;;;;8.32;7.80;;;24.50;98.10;;;;;;4956377;28;20347;-75
2023/06/06 08:11:12;;;;;;;10.07;9.48;;;24.80;95.50;;;;;;4957019;28;20185;-75
2023/06/06 08:13:38;;;;;;;9.57;8.98;;;24.60;92.50;;;;;;4956389;28;20531;-75
2023/06/06 08:16:04;;;;;;;12.23;11.52;;;24.40;92.40;;;;;;4956814;28;20260;-75
2023/06/06 08:18:30;;;;;;;11.25;10.63;;;24.00;92.30;;;;;;4973601;28;20200;-75
2023/06/06 08:20:56;;;;;;;16.95;16.05;;;23.80;91.50;;;;;;4974116;28;20197;-75
2023/06/06 08:23:23;;;;;;;14.35;13.02;;;23.60;92.00;;;;;;4973877;28;20189;-75
2023/06/06 08:25:49;;;;;;;11.38;10.52;;;23.90;92.40;;;;;;4973917;28;20243;-75
2023/06/06 08:28:16;;;;;;;13.07;12.38;;;24.00;92.10;;;;;;4973370;28;20209;-74
2023/06/06 08:30:42;;;;;;;13.57;12.57;;;24.10;91.70;;;;;;4956596;28;20741;-75
2023/06/06 08:33:08;;;;;;;12.43;11.73;;;24.10;91.60;;;;;;4973916;28;20185;-75
2023/06/06 08:35:33;;;;;;;15.85;14.95;;;23.90;92.10;;;;;;4973729;28;20247;-75
2023/06/06 08:38:00;;;;;;;14.15;13.20;;;24.00;92.10;;;;;;4973533;28;20189;-75
2023/06/06 08:40:26;;;;;;;14.02;13.32;;;24.40;91.60;;;;;;4973683;28;20197;-75
2023/06/06 08:42:52;;;;;;;16.25;15.40;;;24.00;90.70;;;;;;4973794;28;20200;-75
2023/06/06 08:45:21;;;;;;;10.90;10.30;;;24.10;91.60;;;;;;4956374;28;20220;-76
2023/06/06 08:47:48;;;;;;;11.77;10.80;;;24.90;90.00;;;;;;4973088;28;20692;-75
2023/06/06 08:50:16;;;;;;;13.30;12.38;;;24.80;90.40;;;;;;4956348;28;20287;-76
2023/06/06 08:52:43;;;;;;;10.85;10.15;;;24.70;91.20;;;;;;4956361;28;20192;-76
2023/06/06 08:55:09;;;;;;;7.95;7.45;;;25.10;91.30;;;;;;4973503;28;20573;-76
2023/06/06 08:57:41;;;;;;;8.52;7.97;;;26.00;88.80;;;;;;4973613;28;20216;-75
2023/06/06 09:00:18;;;;;;;8.45;7.95;;;25.30;87.90;;;;;;4973281;28;20612;-76
2023/06/06 09:02:46;;;;;;;8.45;7.80;;;25.50;87.70;;;;;;4956148;28;20220;-76
2023/06/06 09:05:14;;;;;;;6.90;6.55;;;25.70;87.90;;;;;;4955911;28;20638;-76
2023/06/06 09:07:40;;;;;;;7.93;7.32;;;25.80;87.30;;;;;;4972444;28;20216;-75
2023/06/06 09:10:07;;;;;;;7.25;6.57;;;26.10;85.00;;;;;;4955786;28;20192;-76
2023/06/06 09:12:51;;;;;;;7.82;7.30;;;26.20;85.10;;;;;;4955679;28;20220;-76
2023/06/06 09:15:17;;;;;;;9.98;9.00;;;26.70;84.30;;;;;;5002332;23;20688;-74
2023/06/06 09:17:47;;;;;;;8.60;8.07;;;26.50;83.50;;;;;;4991764;28;20275;-76
2023/06/06 09:20:16;;;;;;;10.82;9.80;;;26.80;83.00;;;;;;5001077;28;20192;-74
2023/06/06 09:22:50;;;;;;;11.35;10.65;;;26.30;84.20;;;;;;5010663;28;20278;-76
2023/06/06 09:25:26;;;;;;;11.07;10.27;;;26.20;84.40;;;;;;4981099;28;20208;-75
2023/06/06 09:28:01;;;;;;;11.40;10.63;;;26.20;84.00;;;;;;4972098;28;20212;-75
2023/06/06 09:30:29;;;;;;;10.95;10.25;;;26.30;83.20;;;;;;4955435;28;20244;-75
2023/06/06 09:33:02;;;;;;;10.70;10.00;;;26.10;84.50;;;;;;4972656;28;20216;-75
2023/06/06 09:35:35;;;;;;;10.90;10.15;;;26.60;83.50;;;;;;4955300;28;20212;-75
2023/06/06 09:38:14;;;;;;;9.90;9.25;;;26.90;82.20;;;;;;4955478;28;20571;-75
2023/06/06 09:40:44;;;;;;;6.00;5.57;;;27.30;80.70;;;;;;4972943;28;20196;-75
2023/06/06 09:43:11;;;;;;;8.80;8.13;;;28.10;80.40;;;;;;4972920;28;20189;-75
2023/06/06 09:45:50;;;;;;;7.43;6.82;;;28.90;77.60;;;;;;4972249;28;20215;-75
2023/06/06 09:48:25;;;;;;;5.88;5.18;;;29.60;73.60;;;;;;4954903;28;20227;-75
2023/06/06 09:50:51;;;;;;;5.60;5.30;;;28.60;73.00;;;;;;4972450;28;20196;-75
2023/06/06 09:53:17;;;;;;;5.47;4.97;;;28.00;75.20;;;;;;4955055;28;20279;-75
2023/06/06 09:55:43;;;;;;;6.28;5.78;;;29.10;72.40;;;;;;4954789;28;20348;-75
2023/06/06 09:58:17;;;;;;;6.63;6.00;;;29.10;72.40;;;;;;4972051;28;20199;-75
2023/06/06 10:00:45;;;;;;;7.90;7.30;;;28.90;72.90;;;;;;4955053;28;20569;-75
2023/06/06 10:03:18;;;;;;;6.38;5.95;;;28.40;70.90;;;;;;4972496;28;20513;-75
2023/06/06 10:05:48;;;;;;;6.00;5.53;;;27.70;73.10;;;;;;4972251;28;20219;-75
2023/06/06 10:08:17;;;;;;;8.20;6.85;;;27.80;73.40;;;;;;4971712;28;20299;-75
2023/06/06 10:10:48;;;;;;;8.73;8.27;;;28.40;71.60;;;;;;4972069;28;20189;-75
2023/06/06 10:13:18;;;;;;;10.82;10.23;;;29.10;70.80;;;;;;4972238;28;20585;-75
2023/06/06 10:15:44;;;;;;;10.38;9.68;;;28.80;69.10;;;;;;4971882;28;20311;-75
2023/06/06 10:18:12;;;;;;;8.85;8.35;;;28.20;70.70;;;;;;4954486;28;20192;-75
2023/06/06 10:20:39;;;;;;;6.80;6.35;;;28.90;69.60;;;;;;4954560;28;20207;-75
2023/06/06 10:23:05;;;;;;;9.07;8.27;;;28.80;68.70;;;;;;4954796;28;20216;-75
2023/06/06 10:25:31;;;;;;;10.70;9.93;;;29.10;67.80;;;;;;4954512;28;20213;-75
2023/06/06 10:28:07;;;;;;;7.65;7.20;;;29.90;66.40;;;;;;4954297;28;20250;-75
2023/06/06 10:30:43;;;;;;;7.03;6.50;;;29.70;66.60;;;;;;4954862;28;20192;-75
2023/06/06 10:33:28;;;;;;;9.25;8.70;;;29.60;66.30;;;;;;4971775;28;20191;-75
2023/06/06 10:35:57;;;;;;;15.30;14.38;;;30.60;63.10;;;;;;4954659;28;20216;-75
2023/06/06 10:38:23;;;;;;;14.18;13.25;;;30.40;63.80;;;;;;4955082;28;20185;-75
2023/06/06 10:40:54;;;;;;;12.82;11.65;;;29.30;64.20;;;;;;4958597;28;20275;-75
2023/06/06 10:43:49;;;;;;;11.73;11.02;;;29.60;64.40;;;;;;4975698;28;20184;-75
2023/06/06 10:46:14;;;;;;;14.35;13.52;;;30.00;61.50;;;;;;4975752;28;20282;-75
2023/06/06 10:48:48;;;;;;;17.10;16.08;;;29.80;60.80;;;;;;4972490;28;20209;-75
2023/06/06 10:51:23;;;;;;;15.85;14.95;;;29.90;60.70;;;;;;4971856;28;20618;-75
2023/06/06 10:54:18;;;;;;;17.27;16.20;;;30.70;60.10;;;;;;4958388;28;20188;-75
2023/06/06 10:56:51;;;;;;;17.67;16.73;;;30.80;59.40;;;;;;4958507;28;20181;-75
2023/06/06 10:59:20;;;;;;;21.70;20.42;;;30.90;56.60;;;;;;4975924;28;20196;-75
2023/06/06 11:01:45;;;;;;;33.83;31.95;;;31.00;57.10;;;;;;4975494;28;20189;-75
2023/06/06 11:04:25;;;;;;;31.05;29.33;;;31.70;55.90;;;;;;4958132;28;20228;-75
2023/06/06 11:06:53;;;;;;;29.10;27.52;;;30.80;55.80;;;;;;4957825;28;20555;-75
2023/06/06 11:09:25;;;;;;;36.33;34.53;;;30.70;57.00;;;;;;4975170;28;20229;-75
2023/06/06 11:12:13;;;;;;;37.05;35.05;;;30.90;55.80;;;;;;4981914;28;20193;-74
2023/06/06 11:15:03;;;;;;;41.40;39.25;;;31.40;53.30;;;;;;4988661;28;20329;-75
2023/06/06 11:17:53;;;;;;;12.85;11.88;;;30.90;53.90;;;;;;4974852;28;20189;-75
2023/06/06 11:20:24;;;;;;;21.52;20.30;;;29.80;58.80;;;;;;4958068;28;20204;-75
2023/06/06 11:23:05;;;;;;;22.45;21.15;;;30.60;55.70;;;;;;4974979;28;20303;-75
2023/06/06 11:25:36;;;;;;;16.50;15.60;;;30.10;57.00;;;;;;4973925;28;20449;-75
2023/06/06 11:28:05;;;;;;;10.75;10.15;;;29.10;57.80;;;;;;4969369;28;20644;-75
2023/06/06 11:30:34;;;;;;;6.75;6.25;;;28.00;60.10;;;;;;4974723;28;20185;-75
2023/06/06 11:33:01;;;;;;;10.05;9.00;;;27.40;61.70;;;;;;4975011;28;20228;-75
2023/06/06 11:35:32;;;;;;;9.70;9.10;;;27.30;63.00;;;;;;4975540;28;20237;-75
2023/06/06 11:37:58;;;;;;;8.88;8.20;;;27.10;62.30;;;;;;4957522;28;20489;-75
2023/06/06 11:40:26;;;;;;;9.15;8.55;;;27.40;60.50;;;;;;4975210;28;20197;-74
2023/06/06 11:42:52;;;;;;;7.82;7.25;;;28.30;59.70;;;;;;4974738;28;20220;-75
2023/06/06 11:45:19;;;;;;;10.43;9.70;;;29.40;58.10;;;;;;4957265;28;20213;-75
2023/06/06 11:47:45;;;;;;;18.23;17.13;;;30.40;57.10;;;;;;4974057;28;20252;-75
2023/06/06 11:50:12;;;;;;;23.95;22.55;;;30.90;55.80;;;;;;4974302;28;20639;-74
2023/06/06 11:52:48;;;;;;;20.35;19.15;;;30.60;53.80;;;;;;4957570;28;20201;-75
2023/06/06 11:55:15;;;;;;;18.98;17.83;;;30.00;56.20;;;;;;4974401;28;20216;-75
2023/06/06 11:57:41;;;;;;;11.43;10.27;;;29.80;56.30;;;;;;4956680;28;20192;-75
2023/06/06 12:00:18;;;;;;;14.52;13.57;;;29.90;58.40;;;;;;4974758;28;20292;-75
2023/06/06 12:02:56;;;;;;;39.67;37.60;;;30.90;56.90;;;;;;4974245;28;20193;-75
2023/06/06 12:05:26;;;;;;;36.42;34.60;;;31.80;54.10;;;;;;4974135;28;20212;-75
2023/06/06 12:07:59;;;;;;;21.63;20.50;;;31.50;53.20;;;;;;4956602;28;20303;-75
2023/06/06 12:10:30;;;;;;;24.13;22.85;;;31.10;53.50;;;;;;4974222;28;20189;-75
2023/06/06 12:12:57;;;;;;;33.47;31.65;;;30.70;53.60;;;;;;4974459;28;20665;-75
2023/06/06 12:15:27;;;;;;;39.55;37.42;;;30.10;54.50;;;;;;4973950;28;20230;-75
2023/06/06 12:18:00;;;;;;;10.43;9.82;;;29.00;56.30;;;;;;4956621;28;20284;-75
2023/06/06 12:20:26;;;;;;;11.18;10.13;;;28.80;57.50;;;;;;4974281;28;20225;-75
2023/06/06 12:22:53;;;;;;;25.52;24.02;;;29.60;56.20;;;;;;4973969;28;20185;-75
2023/06/06 12:25:26;;;;;;;37.22;35.05;;;30.60;53.20;;;;;;4965749;28;20223;-75
2023/06/06 12:27:55;;;;;;;9.60;9.02;;;31.60;51.30;;;;;;4973473;28;20205;-74
2023/06/06 12:30:32;;;;;;;6.85;6.22;;;32.00;48.80;;;;;;4973828;28;20189;-74
2023/06/06 12:33:01;;;;;;;6.63;6.13;;;32.40;48.20;;;;;;4956793;28;20189;-75
2023/06/06 12:35:27;;;;;;;5.93;5.63;;;32.80;48.40;;;;;;4973428;28;20209;-75
2023/06/06 12:37:53;;;;;;;12.40;11.50;;;33.70;49.50;;;;;;4973408;28;20185;-75
2023/06/06 12:40:27;;;;;;;14.02;13.23;;;33.60;47.10;;;;;;4973560;28;20356;-74
2023/06/06 12:42:57;;;;;;;20.40;19.25;;;33.80;47.00;;;;;;4973738;28;20231;-76
2023/06/06 12:45:24;;;;;;;11.82;10.93;;;33.80;46.50;;;;;;4973571;28;20231;-75
2023/06/06 12:47:51;;;;;;;10.98;10.32;;;33.00;48.10;;;;;;4973214;28;20215;-74
2023/06/06 12:50:17;;;;;;;15.68;14.82;;;33.40;48.50;;;;;;4956520;28;20200;-75
2023/06/06 12:52:43;;;;;;;16.70;15.80;;;33.70;46.90;;;;;;4957113;28;20239;-75
2023/06/06 12:55:10;;;;;;;22.88;21.70;;;33.80;47.20;;;;;;4956283;28;20219;-75
2023/06/06 12:57:35;;;;;;;23.50;22.00;;;34.40;46.30;;;;;;4959911;28;20193;-75
2023/06/06 13:00:07;;;;;;;18.00;16.90;;;34.30;44.30;;;;;;4969446;28;20670;-75
2023/06/06 13:02:34;;;;;;;23.50;22.08;;;33.70;45.10;;;;;;4957180;28;20193;-75
2023/06/06 13:05:00;;;;;;;24.15;22.90;;;32.50;46.10;;;;;;4988965;28;20211;-75
2023/06/06 13:07:26;;;;;;;14.98;13.93;;;31.80;47.60;;;;;;4973350;28;20224;-75
2023/06/06 13:09:54;;;;;;;14.10;13.23;;;32.30;47.60;;;;;;4975734;28;20185;-77
2023/06/06 13:12:20;;;;;;;15.73;14.73;;;32.50;45.60;;;;;;4973180;28;20201;-75
2023/06/06 13:14:45;;;;;;;8.27;7.53;;;32.50;46.10;;;;;;4972891;28;20225;-76
2023/06/06 13:17:11;;;;;;;6.28;5.88;;;32.00;47.00;;;;;;4972616;28;20748;-76
2023/06/06 13:19:37;;;;;;;7.57;6.85;;;31.60;48.00;;;;;;4972743;28;20670;-75
2023/06/06 13:22:03;;;;;;;11.75;11.07;;;32.10;47.60;;;;;;4972715;28;20207;-75
2023/06/06 13:24:29;;;;;;;15.73;14.88;;;33.40;45.50;;;;;;4955263;28;20255;-75
2023/06/06 13:26:55;;;;;;;14.00;13.25;;;32.90;42.80;;;;;;4972301;28;20275;-75
2023/06/06 13:29:20;;;;;;;17.65;16.35;;;32.20;43.90;;;;;;4972400;28;20219;-75
2023/06/06 13:31:46;;;;;;;21.88;20.15;;;31.30;45.60;;;;;;4955413;28;20184;-75
2023/06/06 13:34:12;;;;;;;16.02;14.57;;;31.70;45.90;;;;;;4973157;28;20627;-75
2023/06/06 13:36:38;;;;;;;15.20;14.43;;;31.80;44.80;;;;;;4973085;28;20189;-74
2023/06/06 13:39:05;;;;;;;18.08;17.13;;;32.30;45.00;;;;;;4954908;28;20188;-74
2023/06/06 13:41:32;;;;;;;17.30;16.30;;;33.50;44.40;;;;;;4955556;28;20201;-77
2023/06/06 13:43:59;;;;;;;16.00;15.15;;;33.10;43.40;;;;;;4972546;28;20199;-74
2023/06/06 13:46:25;;;;;;;15.75;14.40;;;33.00;43.20;;;;;;4955272;28;20197;-75
2023/06/06 13:48:51;;;;;;;13.18;12.45;;;33.70;42.30;;;;;;4972118;28;20768;-74
2023/06/06 13:51:16;;;;;;;18.98;18.00;;;33.40;43.80;;;;;;4972544;28;20189;-77
2023/06/06 13:53:42;;;;;;;13.15;12.40;;;32.80;44.90;;;;;;4972622;28;20531;-76
2023/06/06 13:56:10;;;;;;;13.75;12.77;;;32.80;45.30;;;;;;4947434;28;20240;-75
2023/06/06 13:58:49;;;;;;;20.58;19.30;;;32.70;45.20;;;;;;4972358;28;20565;-75
2023/06/06 14:01:18;;;;;;;20.48;19.35;;;33.10;45.40;;;;;;4955001;28;20219;-74
2023/06/06 14:03:44;;;;;;;14.63;13.90;;;33.30;45.20;;;;;;4963896;28;20189;-77
2023/06/06 14:06:10;;;;;;;18.90;17.90;;;32.90;44.80;;;;;;4954810;28;20596;-74
2023/06/06 14:08:35;;;;;;;13.18;12.38;;;32.90;44.70;;;;;;4971557;28;20212;-76
2023/06/06 14:11:02;;;;;;;12.55;11.85;;;32.60;44.30;;;;;;4972421;28;20572;-77
2023/06/06 14:13:28;;;;;;;12.90;12.20;;;32.50;44.00;;;;;;4972273;28;20196;-77
2023/06/06 14:15:54;;;;;;;11.15;10.45;;;32.70;43.80;;;;;;4972404;28;20224;-75
2023/06/06 14:18:20;;;;;;;14.90;13.93;;;32.80;42.90;;;;;;4971725;28;20196;-75
2023/06/06 14:20:59;;;;;;;9.43;8.93;;;32.50;43.60;;;;;;4972079;28;20568;-74
2023/06/06 14:23:26;;;;;;;14.10;13.15;;;31.40;44.60;;;;;;4971983;28;20192;-75
2023/06/06 14:25:52;;;;;;;26.30;24.88;;;29.80;47.60;;;;;;4955114;28;20593;-76
2023/06/06 14:28:18;;;;;;;24.23;22.98;;;29.70;49.50;;;;;;4971564;28;20217;-75
2023/06/06 14:30:45;;;;;;;26.05;24.55;;;29.70;47.40;;;;;;4972185;28;20196;-75
2023/06/06 14:33:11;;;;;;;25.65;24.23;;;29.60;47.10;;;;;;4972208;28;20653;-75
2023/06/06 14:35:37;;;;;;;26.63;25.30;;;29.80;48.10;;;;;;4971773;28;20579;-75
2023/06/06 14:38:04;;;;;;;29.55;27.48;;;29.60;47.90;;;;;;4971602;28;20197;-75
2023/06/06 14:40:30;;;;;;;14.35;13.57;;;28.90;48.00;;;;;;4971935;28;20285;-75
2023/06/06 14:42:55;;;;;;;11.20;10.60;;;28.00;50.00;;;;;;4971952;28;20336;-76
2023/06/06 14:45:21;;;;;;;14.38;13.38;;;28.10;50.10;;;;;;4972533;28;20208;-76
2023/06/06 14:47:47;;;;;;;24.77;23.48;;;29.30;49.00;;;;;;4973192;28;20303;-75
2023/06/06 14:50:15;;;;;;;21.25;20.02;;;30.00;47.50;;;;;;4992726;28;20197;-75
2023/06/06 14:52:41;;;;;;;21.08;19.90;;;30.00;47.60;;;;;;4947225;28;20191;-75
2023/06/06 14:55:07;;;;;;;23.90;22.63;;;29.70;47.60;;;;;;4960803;28;20208;-75
2023/06/06 14:57:33;;;;;;;29.98;28.45;;;30.30;47.50;;;;;;4971999;28;20225;-76
2023/06/06 14:59:58;;;;;;;28.17;25.85;;;30.60;46.20;;;;;;4946173;28;20185;-76
2023/06/06 15:02:25;;;;;;;30.63;28.67;;;30.80;46.00;;;;;;4953425;28;20215;-75
2023/06/06 15:04:50;;;;;;;29.42;27.70;;;30.50;46.90;;;;;;4947169;28;20238;-76
2023/06/06 15:07:16;;;;;;;21.67;20.42;;;30.60;47.40;;;;;;4952832;28;20212;-76
2023/06/06 15:09:42;;;;;;;8.15;6.90;;;31.30;47.00;;;;;;4940190;28;20730;-76
2023/06/06 15:12:11;;;;;;;11.00;10.20;;;32.40;45.70;;;;;;4971281;28;20243;-76
2023/06/06 15:14:38;;;;;;;12.38;11.48;;;32.80;44.40;;;;;;4968060;23;20216;-73
2023/06/06 15:17:05;;;;;;;12.90;12.07;;;32.70;44.40;;;;;;4985050;28;20206;-73
2023/06/06 15:19:32;;;;;;;9.93;9.02;;;31.90;44.90;;;;;;4990400;28;20679;-74
2023/06/06 15:22:01;;;;;;;8.25;7.85;;;31.30;45.80;;;;;;4973811;28;20601;-74
2023/06/06 15:24:29;;;;;;;9.73;9.13;;;30.80;46.20;;;;;;4990620;28;20199;-74
2023/06/06 15:26:57;;;;;;;12.43;11.63;;;31.00;46.40;;;;;;4975074;28;20197;-74
2023/06/06 15:29:23;;;;;;;8.50;7.95;;;30.70;46.60;;;;;;4957682;28;20217;-74
2023/06/06 15:31:49;;;;;;;9.30;8.75;;;31.20;46.20;;;;;;4975006;28;20193;-74
2023/06/06 15:34:15;;;;;;;9.82;9.35;;;32.10;45.50;;;;;;4974966;28;20207;-75
2023/06/06 15:36:41;;;;;;;8.38;7.78;;;32.00;45.50;;;;;;4975007;28;20205;-75